createdAt,value
2022-11-07T00:00:23.750Z,16.58
2022-11-07T00:03:25.935Z,12.90
2022-11-07T00:06:28.089Z,12.25
2022-11-07T00:09:30.408Z,12.18
2022-11-07T00:12:35.314Z,12.13
2022-11-07T00:15:37.613Z,9.90
2022-11-07T00:18:39.970Z,11.43
2022-11-07T00:21:42.193Z,6.65
2022-11-07T00:24:44.411Z,8.38
2022-11-07T00:27:46.576Z,10.50
2022-11-07T00:30:48.759Z,9.98
2022-11-07T00:33:51.017Z,9.30
2022-11-07T00:36:53.259Z,11.70
2022-11-07T00:39:55.756Z,6.95
2022-11-07T00:42:57.952Z,7.10
2022-11-07T00:46:02.218Z,13.13
2022-11-07T00:49:04.401Z,13.80
2022-11-07T00:52:06.567Z,11.85
2022-11-07T00:55:09.065Z,11.75
2022-11-07T00:58:14.113Z,7.80
2022-11-07T01:01:22.108Z,8.48
2022-11-07T01:04:43.121Z,8.43
2022-11-07T01:07:45.326Z,8.25
2022-11-07T01:10:47.462Z,8.60
2022-11-07T01:13:50.125Z,10.10
2022-11-07T01:16:52.376Z,18.33
2022-11-07T01:19:54.734Z,12.93
2022-11-07T01:22:56.980Z,17.20
2022-11-07T01:26:04.289Z,12.43
2022-11-07T01:29:06.845Z,20.00
2022-11-07T01:32:09.083Z,18.17
2022-11-07T01:35:11.312Z,16.50
2022-11-07T01:38:13.472Z,13.57
2022-11-07T01:41:22.852Z,12.13
2022-11-07T01:44:25.030Z,11.05
2022-11-07T01:47:31.417Z,11.52
2022-11-07T01:50:33.604Z,11.70
2022-11-07T01:53:36.334Z,16.00
2022-11-07T01:56:40.653Z,10.73
2022-11-07T01:59:42.902Z,11.38
2022-11-07T02:02:47.495Z,10.65
2022-11-07T02:05:56.310Z,13.18
2022-11-07T02:08:58.959Z,12.77
2022-11-07T02:12:01.904Z,16.17
2022-11-07T02:15:05.101Z,10.43
2022-11-07T02:18:07.793Z,10.52
2022-11-07T02:21:22.470Z,11.52
2022-11-07T02:24:26.539Z,11.00
2022-11-07T02:27:30.292Z,9.48
2022-11-07T02:30:34.695Z,10.52
2022-11-07T02:33:37.316Z,11.95
2022-11-07T02:36:40.328Z,8.93
2022-11-07T02:39:42.985Z,10.05
2022-11-07T02:42:46.289Z,12.63
2022-11-07T02:45:49.309Z,9.05
2022-11-07T02:48:55.732Z,11.20
2022-11-07T02:51:58.399Z,11.55
2022-11-07T02:55:01.176Z,11.07
2022-11-07T02:58:04.104Z,10.73
2022-11-07T03:01:09.726Z,12.00
2022-11-07T03:04:12.447Z,11.52
2022-11-07T03:07:15.158Z,17.05
2022-11-07T03:10:18.284Z,10.00
2022-11-07T03:13:20.788Z,17.10
2022-11-07T03:16:22.918Z,11.52
2022-11-07T03:19:25.112Z,10.00
2022-11-07T03:22:27.413Z,10.98
2022-11-07T03:25:29.639Z,11.00
2022-11-07T03:28:32.227Z,8.48
2022-11-07T03:31:34.589Z,12.07
2022-11-07T03:34:37.666Z,8.65
2022-11-07T03:37:39.900Z,11.43
2022-11-07T03:40:42.140Z,16.70
2022-11-07T03:43:45.379Z,11.43
2022-11-07T03:46:47.500Z,16.17
2022-11-07T03:49:49.674Z,11.12
2022-11-07T03:52:51.856Z,14.82
2022-11-07T03:55:55.413Z,14.75
2022-11-07T03:58:57.588Z,10.30
2022-11-07T04:01:59.825Z,13.20
2022-11-07T04:05:02.074Z,9.55
2022-11-07T04:08:04.569Z,11.05
2022-11-07T04:11:07.097Z,21.10
2022-11-07T04:14:27.771Z,14.00
2022-11-07T04:17:30.299Z,10.43
2022-11-07T04:20:32.514Z,11.65
2022-11-07T04:23:34.822Z,12.52
2022-11-07T04:26:55.258Z,10.07
2022-11-07T04:29:57.745Z,8.70
2022-11-07T04:33:01.373Z,13.30
2022-11-07T04:36:03.760Z,7.95
2022-11-07T04:39:05.986Z,10.68
2022-11-07T04:42:08.177Z,13.27
2022-11-07T04:45:10.964Z,8.50
2022-11-07T04:48:13.257Z,9.98
2022-11-07T04:51:16.954Z,16.35
2022-11-07T04:54:19.101Z,13.23
2022-11-07T04:57:21.273Z,9.50
2022-11-07T05:00:24.045Z,14.23
2022-11-07T05:03:26.166Z,15.38
2022-11-07T05:06:28.907Z,11.18
2022-11-07T05:09:31.151Z,15.07
2022-11-07T05:12:33.383Z,12.77
2022-11-07T05:15:35.897Z,9.65
2022-11-07T05:18:38.044Z,17.55
2022-11-07T05:21:41.513Z,11.45
2022-11-07T05:24:43.705Z,13.27
2022-11-07T05:27:45.863Z,12.05
2022-11-07T05:30:48.083Z,13.80
2022-11-07T05:33:50.234Z,16.58
2022-11-07T05:36:52.711Z,14.40
2022-11-07T05:39:55.298Z,16.85
2022-11-07T05:43:01.783Z,19.20
2022-11-07T05:46:04.299Z,14.48
2022-11-07T05:49:06.569Z,15.85
2022-11-07T05:52:08.722Z,19.42
2022-11-07T05:55:10.862Z,19.10
2022-11-07T05:58:13.275Z,25.02
2022-11-07T06:01:15.545Z,19.80
2022-11-07T06:04:17.773Z,13.62
2022-11-07T06:07:19.985Z,15.07
2022-11-07T06:10:22.491Z,12.68
2022-11-07T06:13:24.679Z,13.70
2022-11-07T06:16:27.486Z,20.12
2022-11-07T06:19:29.685Z,16.80
2022-11-07T06:22:31.881Z,14.73
2022-11-07T06:25:35.234Z,13.13
2022-11-07T06:28:37.484Z,13.65
2022-11-07T06:31:39.672Z,22.25
2022-11-07T06:34:41.851Z,16.95
2022-11-07T06:37:44.010Z,19.00
2022-11-07T06:40:46.335Z,18.08
2022-11-07T06:43:51.096Z,21.40
2022-11-07T06:46:53.241Z,16.00
2022-11-07T06:49:55.409Z,15.55
2022-11-07T06:53:04.693Z,12.77
2022-11-07T06:56:08.370Z,14.38
2022-11-07T06:59:10.644Z,14.77
2022-11-07T07:02:21.722Z,19.42
2022-11-07T07:05:35.950Z,12.25
2022-11-07T07:08:38.204Z,15.43
2022-11-07T07:11:42.685Z,11.63
2022-11-07T07:14:44.875Z,15.65
2022-11-07T07:17:47.019Z,16.55
2022-11-07T07:20:49.984Z,14.23
2022-11-07T07:23:52.931Z,13.57
2022-11-07T07:26:55.131Z,15.70
2022-11-07T07:29:57.314Z,18.23
2022-11-07T07:32:59.536Z,14.15
2022-11-07T07:36:01.884Z,15.57
2022-11-07T07:39:04.110Z,19.45
2022-11-07T07:42:06.304Z,16.42
2022-11-07T07:45:10.136Z,17.60
2022-11-07T07:48:12.320Z,17.30
2022-11-07T07:51:14.861Z,15.38
2022-11-07T07:54:17.076Z,17.05
2022-11-07T07:57:19.226Z,11.68
2022-11-07T08:00:21.514Z,17.00
2022-11-07T08:03:32.170Z,14.52
2022-11-07T08:06:37.942Z,15.77
2022-11-07T08:09:40.124Z,14.45
2022-11-07T08:12:46.933Z,13.85
2022-11-07T08:15:49.228Z,12.35
2022-11-07T08:18:51.424Z,13.88
2022-11-07T08:21:53.616Z,18.55
2022-11-07T08:24:55.801Z,19.83
2022-11-07T08:27:58.121Z,15.82
2022-11-07T08:31:08.623Z,21.58
2022-11-07T08:34:10.963Z,17.55
2022-11-07T08:37:13.220Z,19.98
2022-11-07T08:40:15.431Z,21.15
2022-11-07T08:43:18.449Z,18.58
2022-11-07T08:46:20.960Z,17.58
2022-11-07T08:49:23.143Z,14.02
2022-11-07T08:52:25.315Z,17.42
2022-11-07T08:55:27.515Z,16.23
2022-11-07T08:58:30.400Z,23.95
2022-11-07T09:01:32.808Z,16.77
2022-11-07T09:04:35.084Z,15.40
2022-11-07T09:07:40.533Z,20.48
2022-11-07T09:10:42.914Z,14.50
2022-11-07T09:13:46.954Z,20.30
2022-11-07T09:16:49.136Z,17.23
2022-11-07T09:19:51.296Z,14.68
2022-11-07T09:22:56.770Z,16.35
2022-11-07T09:26:00.908Z,14.77
2022-11-07T09:29:04.162Z,15.10
2022-11-07T09:32:23.693Z,18.65
2022-11-07T09:35:29.135Z,16.15
2022-11-07T09:38:31.561Z,17.27
2022-11-07T09:41:39.830Z,16.27
2022-11-07T09:44:49.226Z,14.65
2022-11-07T09:47:59.792Z,13.70
2022-11-07T09:51:01.935Z,17.53
2022-11-07T09:54:08.028Z,16.30
2022-11-07T09:57:15.970Z,11.88
2022-11-07T10:00:20.099Z,12.25
2022-11-07T10:03:22.313Z,13.02
2022-11-07T10:06:34.396Z,12.73
2022-11-07T10:10:22.802Z,13.32
2022-11-07T10:13:33.647Z,11.18
2022-11-07T10:16:59.668Z,12.63
2022-11-07T10:20:33.028Z,15.60
2022-11-07T10:23:53.885Z,12.65
2022-11-07T10:26:56.521Z,14.73
2022-11-07T10:29:59.467Z,13.48
2022-11-07T10:33:13.897Z,9.02
2022-11-07T10:36:27.859Z,6.40
2022-11-07T10:39:31.127Z,5.35
2022-11-07T10:42:34.512Z,7.28
2022-11-07T10:45:37.472Z,6.95
2022-11-07T10:48:50.535Z,10.13
2022-11-07T10:51:53.733Z,15.18
2022-11-07T10:55:09.702Z,25.30
2022-11-07T10:58:30.641Z,7.53
2022-11-07T11:01:32.860Z,6.72
2022-11-07T11:04:37.155Z,5.12
2022-11-07T11:07:40.988Z,5.85
2022-11-07T11:10:43.562Z,8.07
2022-11-07T11:13:45.886Z,5.28
2022-11-07T11:16:54.952Z,8.07
2022-11-07T11:19:57.164Z,4.65
2022-11-07T11:23:00.648Z,5.32
2022-11-07T11:26:07.197Z,9.00
2022-11-07T11:29:14.646Z,4.55
2022-11-07T11:32:22.910Z,6.80
2022-11-07T11:36:00.482Z,8.82
2022-11-07T11:39:04.051Z,5.93
2022-11-07T11:42:32.582Z,3.87
2022-11-07T11:45:40.875Z,6.07
2022-11-07T11:48:54.052Z,8.32
2022-11-07T11:52:08.541Z,6.93
2022-11-07T11:55:15.556Z,9.48
2022-11-07T11:58:17.875Z,8.38
2022-11-07T12:01:50.744Z,5.90
2022-11-07T12:05:16.914Z,5.55
2022-11-07T12:08:46.628Z,11.23
2022-11-07T12:11:48.683Z,16.35
2022-11-07T12:15:19.955Z,14.80
2022-11-07T12:18:37.632Z,12.82
2022-11-07T12:22:11.456Z,8.05
2022-11-07T12:25:35.160Z,6.97
2022-11-07T12:28:58.494Z,5.93
2022-11-07T12:32:19.218Z,14.25
2022-11-07T12:35:33.387Z,19.77
2022-11-07T12:38:53.751Z,19.37
2022-11-07T12:42:09.234Z,7.53
2022-11-07T12:45:55.434Z,5.10
2022-11-07T12:49:03.573Z,27.37
2022-11-07T12:52:19.394Z,5.20
2022-11-07T12:55:25.465Z,4.90
2022-11-07T12:58:32.990Z,6.70
2022-11-07T13:02:11.566Z,21.05
2022-11-07T13:05:39.899Z,8.65
2022-11-07T13:09:02.898Z,3.75
2022-11-07T13:12:09.280Z,4.07
2022-11-07T13:15:13.250Z,7.68
2022-11-07T13:18:28.744Z,4.12
2022-11-07T13:21:40.123Z,5.00
2022-11-07T13:24:52.990Z,3.33
2022-11-07T13:27:55.101Z,2.17
2022-11-07T13:31:01.236Z,4.75
2022-11-07T13:34:26.569Z,3.97
2022-11-07T13:40:35.405Z,4.55
2022-11-07T13:43:46.305Z,4.05
2022-11-07T13:46:53.867Z,3.28
2022-11-07T13:49:59.249Z,3.65
2022-11-07T13:53:04.962Z,4.50
2022-11-07T13:56:22.834Z,8.20
2022-11-07T13:59:30.347Z,4.95
2022-11-07T14:02:35.365Z,3.37
2022-11-07T14:05:38.833Z,4.15
2022-11-07T14:08:44.203Z,3.33
2022-11-07T14:11:47.160Z,5.78
2022-11-07T14:14:50.058Z,10.20
2022-11-07T14:17:52.265Z,6.40
2022-11-07T14:20:56.781Z,4.53
2022-11-07T14:23:59.504Z,6.03
2022-11-07T14:27:08.650Z,3.33
2022-11-07T14:30:16.114Z,5.25
2022-11-07T14:33:21.126Z,3.22
2022-11-07T14:36:23.943Z,3.45
2022-11-07T14:39:29.465Z,5.07
2022-11-07T14:42:31.790Z,2.35
2022-11-07T14:46:10.287Z,6.07
2022-11-07T14:48:56.448Z,3.97
2022-11-07T14:51:58.664Z,10.75
2022-11-07T14:55:14.179Z,5.12
2022-11-07T14:58:18.895Z,12.48
2022-11-07T15:01:33.749Z,10.63
2022-11-07T15:04:39.641Z,26.35
2022-11-07T15:07:48.102Z,13.88
2022-11-07T15:11:00.310Z,16.27
2022-11-07T15:14:06.667Z,9.63
2022-11-07T15:17:23.653Z,3.47
2022-11-07T15:20:34.985Z,9.95
2022-11-07T15:23:37.239Z,9.80
2022-11-07T15:26:39.458Z,14.20
2022-11-07T15:29:56.893Z,13.30
2022-11-07T15:32:59.912Z,10.85
2022-11-07T15:36:02.283Z,11.30
2022-11-07T15:39:04.563Z,12.50
2022-11-07T15:42:06.778Z,7.68
2022-11-07T15:45:09.487Z,8.98
2022-11-07T15:48:18.602Z,4.55
2022-11-07T15:51:21.228Z,9.35
2022-11-07T15:54:23.577Z,8.73
2022-11-07T15:57:25.737Z,7.82
2022-11-07T16:00:27.972Z,28.48
2022-11-07T16:03:30.331Z,37.75
2022-11-07T16:06:32.550Z,41.00
2022-11-07T16:09:34.786Z,23.02
2022-11-07T16:12:36.923Z,18.83
2022-11-07T16:15:40.858Z,12.80
2022-11-07T16:18:44.294Z,20.00
2022-11-07T16:21:48.431Z,30.35
2022-11-07T16:24:50.681Z,23.27
2022-11-07T16:27:55.932Z,17.37
2022-11-07T16:30:59.084Z,8.77
2022-11-07T16:34:01.712Z,8.07
2022-11-07T16:37:03.894Z,7.18
2022-11-07T16:40:08.615Z,10.98
2022-11-07T16:43:11.007Z,9.93
2022-11-07T16:46:21.373Z,9.10
2022-11-07T16:49:32.604Z,20.52
2022-11-07T16:52:34.793Z,15.93
2022-11-07T16:55:37.060Z,25.77
2022-11-07T16:58:39.513Z,22.35
2022-11-07T17:01:41.896Z,28.58
2022-11-07T17:04:44.170Z,22.77
2022-11-07T17:07:46.391Z,17.35
2022-11-07T17:10:48.647Z,21.25
2022-11-07T17:13:51.040Z,17.52
2022-11-07T17:16:53.242Z,23.27
2022-11-07T17:19:55.537Z,15.20
2022-11-07T17:22:58.356Z,15.60
2022-11-07T17:26:01.404Z,21.40
2022-11-07T17:29:05.706Z,22.48
2022-11-07T17:32:08.067Z,25.35
2022-11-07T17:35:31.000Z,36.25
2022-11-07T17:38:33.221Z,36.88
2022-11-07T17:41:35.544Z,36.90
2022-11-07T17:44:40.087Z,34.28
2022-11-07T17:47:43.721Z,35.85
2022-11-07T17:50:46.290Z,32.88
2022-11-07T17:53:49.038Z,45.28
2022-11-07T17:56:51.328Z,34.45
2022-11-07T17:59:53.641Z,43.83
2022-11-07T18:02:56.217Z,34.55
2022-11-07T18:05:58.700Z,43.58
2022-11-07T18:09:02.518Z,33.28
2022-11-07T18:12:05.212Z,36.33
2022-11-07T18:15:08.304Z,33.78
2022-11-07T18:18:11.377Z,27.27
2022-11-07T18:21:14.736Z,47.53
2022-11-07T18:24:16.994Z,40.28
2022-11-07T18:27:19.589Z,38.58
2022-11-07T18:30:21.959Z,30.73
2022-11-07T18:33:24.365Z,20.20
2022-11-07T18:36:27.332Z,25.33
2022-11-07T18:39:29.811Z,22.83
2022-11-07T18:42:32.240Z,37.65
2022-11-07T18:45:34.683Z,24.45
2022-11-07T18:48:38.001Z,18.73
2022-11-07T18:51:40.802Z,19.85
2022-11-07T18:54:43.176Z,21.90
2022-11-07T18:57:45.704Z,19.10
2022-11-07T19:00:48.503Z,17.33
2022-11-07T19:03:50.706Z,12.32
2022-11-07T19:06:56.825Z,9.23
2022-11-07T19:09:59.410Z,14.68
2022-11-07T19:13:06.940Z,25.35
2022-11-07T19:16:13.113Z,37.05
2022-11-07T19:19:15.533Z,45.90
2022-11-07T19:22:17.957Z,43.05
2022-11-07T19:25:20.348Z,41.00
2022-11-07T19:28:23.167Z,49.15
2022-11-07T19:31:27.583Z,49.03
2022-11-07T19:34:33.020Z,37.03
2022-11-07T19:37:35.528Z,47.53
2022-11-07T19:40:39.244Z,47.67
2022-11-07T19:43:42.670Z,40.08
2022-11-07T19:46:45.432Z,22.35
2022-11-07T19:49:48.325Z,21.95
2022-11-07T19:52:50.753Z,27.33
2022-11-07T19:55:56.160Z,30.20
2022-11-07T19:59:01.514Z,35.80
2022-11-07T20:02:31.225Z,53.20
2022-11-07T20:05:27.047Z,42.15
2022-11-07T20:08:30.129Z,30.70
2022-11-07T20:11:32.654Z,20.62
2022-11-07T20:14:37.268Z,12.70
2022-11-07T20:17:40.615Z,22.33
2022-11-07T20:20:42.844Z,38.03
2022-11-07T20:23:46.892Z,33.25
2022-11-07T20:26:49.195Z,37.03
2022-11-07T20:29:51.479Z,38.80
2022-11-07T20:32:53.847Z,27.27
2022-11-07T20:36:04.607Z,22.58
2022-11-07T20:39:07.780Z,17.13
2022-11-07T20:42:13.922Z,14.55
2022-11-07T20:45:16.481Z,19.00
2022-11-07T20:48:20.069Z,28.08
2022-11-07T20:51:25.392Z,16.12
2022-11-07T20:54:29.477Z,16.23
2022-11-07T20:57:31.916Z,11.50
2022-11-07T21:00:34.674Z,11.45
2022-11-07T21:03:37.430Z,10.80
2022-11-07T21:06:39.860Z,11.57
2022-11-07T21:09:42.218Z,18.25
2022-11-07T21:12:45.720Z,23.65
2022-11-07T21:15:51.361Z,16.35
2022-11-07T21:18:54.497Z,21.27
2022-11-07T21:21:57.217Z,21.15
2022-11-07T21:24:59.392Z,29.90
2022-11-07T21:28:01.603Z,19.23
2022-11-07T21:31:06.570Z,21.37
2022-11-07T21:34:11.006Z,22.30
2022-11-07T21:37:13.153Z,18.80
2022-11-07T21:40:15.394Z,19.87
2022-11-07T21:43:18.012Z,11.18
2022-11-07T21:46:25.933Z,10.32
2022-11-07T21:49:28.229Z,7.40
2022-11-07T21:52:30.397Z,10.75
2022-11-07T21:55:33.191Z,9.60
2022-11-07T21:58:35.370Z,11.63
2022-11-07T22:01:38.820Z,16.90
2022-11-07T22:04:41.114Z,8.75
2022-11-07T22:07:43.757Z,7.60
2022-11-07T22:10:45.889Z,6.50
2022-11-07T22:13:48.164Z,10.98
2022-11-07T22:16:50.956Z,56.97
2022-11-07T22:19:53.927Z,57.40
2022-11-07T22:22:56.155Z,50.17
2022-11-07T22:26:03.404Z,30.35
2022-11-07T22:29:05.605Z,15.30
2022-11-07T22:32:07.793Z,15.80
2022-11-07T22:35:09.940Z,14.55
2022-11-07T22:38:12.112Z,14.65
2022-11-07T22:41:22.821Z,8.93
2022-11-07T22:44:27.377Z,4.67
2022-11-07T22:47:29.627Z,6.55
2022-11-07T22:50:33.094Z,11.48
2022-11-07T22:53:35.505Z,12.90
2022-11-07T22:56:37.894Z,13.30
2022-11-07T22:59:40.053Z,15.98
2022-11-07T23:02:42.414Z,11.63
2022-11-07T23:05:44.674Z,9.75
2022-11-07T23:08:47.801Z,9.65
2022-11-07T23:11:49.977Z,13.30
2022-11-07T23:14:55.435Z,9.07
2022-11-07T23:17:58.304Z,13.23
2022-11-07T23:21:10.373Z,8.10
2022-11-07T23:24:13.072Z,10.65
2022-11-07T23:27:15.926Z,8.00
2022-11-07T23:30:18.180Z,7.62
2022-11-07T23:33:20.419Z,7.95
2022-11-07T23:36:22.713Z,4.82
2022-11-07T23:39:26.253Z,8.35
2022-11-07T23:42:28.436Z,14.13
2022-11-07T23:45:48.898Z,10.80
2022-11-07T23:49:14.385Z,15.23
2022-11-07T23:52:17.720Z,12.23
2022-11-07T23:55:38.341Z,7.70
2022-11-07T23:58:58.987Z,8.07
